createdAt,value
2019-04-03T00:01:37.871Z,26.33
2019-04-03T00:04:07.464Z,21.60
2019-04-03T00:06:36.978Z,22.57
2019-04-03T00:09:08.304Z,22.47
2019-04-03T00:11:39.755Z,23.80
2019-04-03T00:14:12.248Z,25.00
2019-04-03T00:16:41.452Z,23.20
2019-04-03T00:19:13.509Z,21.60
2019-04-03T00:21:43.039Z,24.80
2019-04-03T00:24:12.658Z,22.70
2019-04-03T00:26:42.053Z,25.50
2019-04-03T00:29:11.563Z,23.67
2019-04-03T00:31:41.276Z,25.97
2019-04-03T00:34:10.913Z,23.53
2019-04-03T00:36:40.491Z,24.67
2019-04-03T00:39:12.492Z,25.37
2019-04-03T00:41:42.274Z,26.73
2019-04-03T00:44:12.812Z,25.93
2019-04-03T00:46:42.496Z,23.80
2019-04-03T00:49:14.367Z,27.63
2019-04-03T00:51:45.941Z,22.65
2019-04-03T00:54:17.297Z,23.60
2019-04-03T00:56:47.869Z,23.63
2019-04-03T00:59:17.241Z,25.43
2019-04-03T01:01:48.680Z,23.27
2019-04-03T01:04:19.979Z,24.37
2019-04-03T01:06:49.437Z,23.42
2019-04-03T01:09:21.082Z,24.73
2019-04-03T01:11:51.624Z,24.43
2019-04-03T01:14:23.608Z,23.67
2019-04-03T01:16:53.415Z,25.20
2019-04-03T01:19:24.309Z,25.95
2019-04-03T01:21:54.003Z,26.45
2019-04-03T01:24:25.518Z,24.27
2019-04-03T01:26:58.418Z,24.13
2019-04-03T01:29:27.840Z,30.15
2019-04-03T01:31:58.801Z,26.17
2019-04-03T01:34:31.915Z,25.07
2019-04-03T01:37:04.241Z,25.15
2019-04-03T01:39:35.774Z,26.50
2019-04-03T01:42:05.386Z,25.83
2019-04-03T01:44:35.152Z,25.30
2019-04-03T01:47:04.679Z,25.90
2019-04-03T01:49:34.116Z,29.80
2019-04-03T01:52:05.486Z,22.37
2019-04-03T01:54:36.441Z,25.07
2019-04-03T01:57:07.087Z,24.60
2019-04-03T01:59:37.499Z,23.60
2019-04-03T02:02:09.124Z,25.10
2019-04-03T02:04:38.608Z,21.77
2019-04-03T02:07:09.277Z,23.83
2019-04-03T02:09:39.100Z,21.63
2019-04-03T02:12:08.584Z,21.83
2019-04-03T02:14:37.986Z,24.83
2019-04-03T02:17:08.641Z,21.65
2019-04-03T02:19:39.369Z,22.00
2019-04-03T02:22:09.018Z,23.23
2019-04-03T02:24:38.822Z,23.60
2019-04-03T02:27:09.672Z,24.00
2019-04-03T02:29:41.150Z,23.43
2019-04-03T02:32:11.845Z,23.53
2019-04-03T02:34:41.435Z,26.53
2019-04-03T02:37:16.510Z,24.70
2019-04-03T02:39:44.859Z,24.40
2019-04-03T02:42:16.410Z,23.77
2019-04-03T02:44:48.405Z,23.83
2019-04-03T02:47:18.346Z,24.90
2019-04-03T02:49:51.351Z,25.73
2019-04-03T02:52:24.065Z,22.13
2019-04-03T02:54:53.878Z,26.62
2019-04-03T02:57:23.389Z,24.27
2019-04-03T02:59:58.834Z,24.47
2019-04-03T03:02:27.146Z,22.83
2019-04-03T03:04:57.907Z,22.45
2019-04-03T03:07:28.154Z,21.43
2019-04-03T03:09:58.432Z,24.82
2019-04-03T03:12:28.845Z,24.13
2019-04-03T03:14:59.485Z,23.10
2019-04-03T03:17:29.193Z,21.40
2019-04-03T03:20:05.168Z,22.43
2019-04-03T03:22:33.051Z,22.05
2019-04-03T03:25:03.359Z,24.87
2019-04-03T03:27:40.897Z,23.20
2019-04-03T03:30:29.973Z,23.50
2019-04-03T03:32:40.997Z,21.97
2019-04-03T03:35:16.911Z,23.53
2019-04-03T03:37:45.217Z,22.40
2019-04-03T03:40:17.243Z,22.70
2019-04-03T03:42:48.724Z,22.13
2019-04-03T03:45:21.604Z,22.33
2019-04-03T03:47:53.298Z,26.60
2019-04-03T03:50:26.115Z,22.82
2019-04-03T03:52:57.785Z,24.07
2019-04-03T03:55:27.843Z,23.60
2019-04-03T03:58:00.214Z,23.87
2019-04-03T04:00:31.827Z,22.27
2019-04-03T04:03:03.254Z,22.40
2019-04-03T04:05:32.799Z,21.83
2019-04-03T04:08:02.295Z,21.62
2019-04-03T04:10:36.424Z,21.60
2019-04-03T04:13:04.940Z,20.53
2019-04-03T04:15:34.644Z,22.20
2019-04-03T04:18:06.221Z,21.30
2019-04-03T04:20:38.530Z,21.13
2019-04-03T04:23:08.464Z,21.10
2019-04-03T04:25:43.218Z,20.60
2019-04-03T04:28:13.330Z,22.13
2019-04-03T04:30:46.319Z,21.53
2019-04-03T04:33:17.781Z,20.63
2019-04-03T04:35:47.551Z,22.03
2019-04-03T04:38:16.937Z,22.00
2019-04-03T04:40:46.955Z,24.00
2019-04-03T04:43:17.499Z,22.03
2019-04-03T04:45:48.950Z,21.57
2019-04-03T04:48:20.599Z,20.97
2019-04-03T04:50:50.747Z,20.88
2019-04-03T04:53:21.336Z,22.27
2019-04-03T04:55:51.255Z,21.75
2019-04-03T04:58:21.760Z,21.00
2019-04-03T05:00:53.502Z,21.05
2019-04-03T05:03:23.511Z,19.73
2019-04-03T05:05:52.946Z,20.63
2019-04-03T05:08:22.558Z,22.82
2019-04-03T05:10:52.406Z,20.80
2019-04-03T05:13:22.938Z,21.15
2019-04-03T05:15:54.674Z,23.80
2019-04-03T05:18:28.517Z,22.97
2019-04-03T05:20:57.665Z,23.23
2019-04-03T05:23:29.740Z,20.97
2019-04-03T05:26:01.895Z,20.77
2019-04-03T05:28:34.064Z,21.27
2019-04-03T05:31:03.091Z,20.83
2019-04-03T05:33:33.993Z,20.17
2019-04-03T05:36:03.619Z,22.57
2019-04-03T05:38:34.101Z,21.73
2019-04-03T05:41:03.837Z,21.70
2019-04-03T05:43:34.535Z,21.87
2019-04-03T05:46:05.666Z,20.07
2019-04-03T05:48:37.193Z,21.10
2019-04-03T05:51:07.788Z,21.23
2019-04-03T05:53:38.101Z,20.70
2019-04-03T05:56:07.828Z,21.30
2019-04-03T05:58:37.431Z,21.47
2019-04-03T06:01:07.393Z,25.50
2019-04-03T06:03:44.288Z,22.07
2019-04-03T06:06:11.017Z,22.60
2019-04-03T06:08:41.440Z,21.27
2019-04-03T06:11:11.139Z,22.67
2019-04-03T06:13:41.537Z,20.53
2019-04-03T06:16:10.956Z,21.97
2019-04-03T06:18:40.841Z,20.93
2019-04-03T06:21:11.351Z,20.47
2019-04-03T06:23:40.965Z,22.00
2019-04-03T06:26:11.107Z,20.03
2019-04-03T06:28:43.292Z,20.67
2019-04-03T06:31:14.857Z,20.13
2019-04-03T06:33:45.412Z,18.93
2019-04-03T06:36:17.212Z,22.32
2019-04-03T06:38:46.958Z,21.93
2019-04-03T06:41:16.791Z,21.90
2019-04-03T06:43:49.116Z,22.90
2019-04-03T06:46:17.419Z,20.07
2019-04-03T06:48:47.148Z,20.00
2019-04-03T06:51:17.846Z,21.43
2019-04-03T06:53:50.664Z,21.60
2019-04-03T06:56:21.934Z,19.07
2019-04-03T06:58:52.882Z,19.57
2019-04-03T07:01:22.377Z,18.87
2019-04-03T07:03:51.826Z,20.05
2019-04-03T07:06:21.264Z,19.53
2019-04-03T07:08:50.892Z,20.55
2019-04-03T07:11:23.627Z,19.47
2019-04-03T07:13:53.653Z,19.27
2019-04-03T07:16:23.014Z,20.40
2019-04-03T07:18:53.846Z,20.55
2019-04-03T07:21:24.004Z,20.17
2019-04-03T07:23:56.138Z,20.00
2019-04-03T07:26:27.595Z,21.95
2019-04-03T07:28:58.520Z,20.27
2019-04-03T07:31:28.497Z,18.30
2019-04-03T07:34:00.190Z,19.60
2019-04-03T07:36:29.401Z,19.27
2019-04-03T07:39:00.131Z,19.43
2019-04-03T07:41:29.601Z,18.60
2019-04-03T07:43:59.321Z,18.20
2019-04-03T07:46:31.507Z,19.10
2019-04-03T07:49:01.971Z,18.17
2019-04-03T07:51:32.513Z,18.23
2019-04-03T07:54:04.960Z,20.23
2019-04-03T07:56:34.597Z,18.00
2019-04-03T07:59:05.421Z,19.60
2019-04-03T08:01:34.912Z,18.27
2019-04-03T08:04:05.880Z,18.67
2019-04-03T08:06:36.489Z,18.53
2019-04-03T08:09:09.920Z,19.60
2019-04-03T08:11:40.107Z,18.77
2019-04-03T08:14:11.727Z,18.47
2019-04-03T08:16:43.288Z,19.62
2019-04-03T08:19:13.448Z,19.57
2019-04-03T08:21:43.281Z,18.70
2019-04-03T08:24:12.876Z,18.27
2019-04-03T08:26:43.735Z,19.20
2019-04-03T08:29:13.253Z,18.40
2019-04-03T08:31:45.021Z,22.30
2019-04-03T08:34:18.572Z,19.20
2019-04-03T08:36:48.598Z,19.70
2019-04-03T08:39:18.051Z,18.67
2019-04-03T08:41:47.931Z,19.63
2019-04-03T08:44:17.362Z,17.93
2019-04-03T08:46:46.876Z,18.30
2019-04-03T08:49:17.499Z,18.20
2019-04-03T08:51:50.270Z,19.80
2019-04-03T08:54:21.651Z,21.10
2019-04-03T08:56:52.160Z,23.90
2019-04-03T08:59:24.911Z,20.50
2019-04-03T09:01:55.710Z,18.97
2019-04-03T09:04:25.936Z,17.00
2019-04-03T09:06:57.491Z,16.93
2019-04-03T09:09:29.110Z,17.97
2019-04-03T09:12:00.247Z,16.63
2019-04-03T09:14:29.687Z,16.97
2019-04-03T09:17:02.709Z,18.15
2019-04-03T09:19:36.551Z,18.37
2019-04-03T09:22:07.460Z,16.87
2019-04-03T09:24:37.482Z,17.33
2019-04-03T09:27:09.859Z,18.80
2019-04-03T09:29:40.014Z,17.73
2019-04-03T09:32:10.915Z,17.70
2019-04-03T09:34:40.404Z,17.87
2019-04-03T09:37:09.936Z,21.40
2019-04-03T09:39:39.719Z,20.57
2019-04-03T09:42:09.154Z,19.77
2019-04-03T09:44:40.200Z,20.47
2019-04-03T09:47:11.746Z,25.53
2019-04-03T09:49:43.749Z,23.13
2019-04-03T09:52:12.479Z,23.57
2019-04-03T09:54:43.214Z,24.17
2019-04-03T09:57:12.617Z,22.57
2019-04-03T09:59:43.044Z,24.13
2019-04-03T10:02:15.260Z,26.90
2019-04-03T10:04:46.916Z,25.05
2019-04-03T10:07:17.410Z,26.33
2019-04-03T10:09:47.255Z,27.47
2019-04-03T10:12:16.879Z,26.10
2019-04-03T10:14:46.263Z,26.97
2019-04-03T10:17:15.701Z,24.67
2019-04-03T10:19:47.100Z,28.92
2019-04-03T10:22:16.487Z,27.20
2019-04-03T10:24:47.593Z,27.77
2019-04-03T10:27:17.064Z,29.23
2019-04-03T10:29:49.125Z,27.90
2019-04-03T10:32:18.060Z,26.23
2019-04-03T10:34:47.961Z,26.50
2019-04-03T10:37:19.366Z,25.13
2019-04-03T10:39:51.761Z,26.77
2019-04-03T10:42:22.471Z,24.50
2019-04-03T10:44:53.947Z,25.77
2019-04-03T10:47:39.474Z,25.30
2019-04-03T10:49:58.643Z,26.83
2019-04-03T10:52:28.162Z,23.23
2019-04-03T10:54:59.294Z,24.60
2019-04-03T10:57:33.204Z,22.17
2019-04-03T11:00:01.773Z,24.20
2019-04-03T11:02:32.926Z,22.40
2019-04-03T11:05:02.961Z,22.35
2019-04-03T11:07:32.643Z,22.33
2019-04-03T11:10:04.792Z,21.40
2019-04-03T11:12:36.690Z,21.93
2019-04-03T11:15:10.810Z,23.37
2019-04-03T11:17:42.692Z,20.40
2019-04-03T11:20:18.585Z,20.70
2019-04-03T11:22:48.997Z,21.50
2019-04-03T11:25:18.922Z,19.30
2019-04-03T11:27:49.604Z,21.53
2019-04-03T11:30:24.170Z,19.77
2019-04-03T11:32:53.795Z,18.40
2019-04-03T11:35:24.354Z,17.05
2019-04-03T11:37:56.736Z,18.50
2019-04-03T11:40:26.887Z,17.57
2019-04-03T11:42:56.760Z,18.33
2019-04-03T11:45:26.289Z,19.70
2019-04-03T11:47:55.900Z,17.70
2019-04-03T11:50:27.214Z,19.33
2019-04-03T11:52:56.734Z,17.80
2019-04-03T11:55:26.648Z,17.93
2019-04-03T11:57:56.097Z,17.80
2019-04-03T12:00:30.901Z,18.15
2019-04-03T12:03:02.219Z,17.23
2019-04-03T12:05:33.321Z,19.87
2019-04-03T12:08:03.117Z,17.63
2019-04-03T12:10:35.140Z,17.33
2019-04-03T12:13:04.832Z,17.50
2019-04-03T12:15:36.941Z,18.87
2019-04-03T12:18:07.015Z,19.27
2019-04-03T12:20:41.046Z,17.70
2019-04-03T12:23:08.168Z,17.27
2019-04-03T12:25:39.399Z,16.23
2019-04-03T12:28:11.020Z,14.87
2019-04-03T12:30:41.642Z,16.00
2019-04-03T12:33:13.628Z,14.90
2019-04-03T12:35:46.228Z,13.60
2019-04-03T12:38:17.585Z,14.67
2019-04-03T12:40:47.396Z,12.47
2019-04-03T12:43:17.911Z,11.87
2019-04-03T12:45:48.395Z,12.50
2019-04-03T12:48:19.933Z,11.73
2019-04-03T12:50:49.623Z,11.13
2019-04-03T12:53:19.121Z,10.73
2019-04-03T12:55:49.957Z,11.50
2019-04-03T12:58:19.355Z,11.67
2019-04-03T13:00:51.672Z,10.40
2019-04-03T13:03:23.548Z,10.27
2019-04-03T13:05:52.831Z,12.65
2019-04-03T13:08:22.439Z,26.83
2019-04-03T13:10:54.227Z,12.83
2019-04-03T13:13:27.948Z,9.93
2019-04-03T13:15:56.831Z,10.20
2019-04-03T13:18:27.015Z,9.03
2019-04-03T13:20:56.817Z,7.83
2019-04-03T13:23:28.216Z,7.53
2019-04-03T13:25:59.957Z,7.43
2019-04-03T13:28:30.710Z,7.85
2019-04-03T13:31:01.701Z,7.20
2019-04-03T13:33:36.245Z,8.60
2019-04-03T13:36:07.636Z,7.27
2019-04-03T13:38:37.083Z,6.70
2019-04-03T13:41:07.952Z,6.50
2019-04-03T13:43:41.505Z,7.60
2019-04-03T13:46:11.160Z,6.17
2019-04-03T13:48:40.976Z,6.13
2019-04-03T13:51:12.370Z,5.80
2019-04-03T13:53:42.175Z,5.73
2019-04-03T13:56:12.719Z,6.77
2019-04-03T13:58:42.806Z,6.43
2019-04-03T14:01:13.722Z,5.67
2019-04-03T14:03:43.666Z,5.00
2019-04-03T14:06:13.217Z,5.73
2019-04-03T14:08:45.324Z,6.73
2019-04-03T14:11:19.042Z,6.80
2019-04-03T14:13:49.613Z,5.23
2019-04-03T14:16:22.390Z,5.57
2019-04-03T14:18:51.639Z,6.23
2019-04-03T14:21:21.199Z,9.80
2019-04-03T14:23:50.872Z,7.73
2019-04-03T14:26:21.652Z,9.57
2019-04-03T14:28:51.282Z,8.83
2019-04-03T14:31:32.729Z,9.77
2019-04-03T14:33:52.510Z,10.97
2019-04-03T14:36:22.477Z,13.33
2019-04-03T14:38:55.304Z,11.53
2019-04-03T14:41:26.322Z,13.37
2019-04-03T14:43:56.949Z,12.98
2019-04-03T14:46:28.255Z,14.47
2019-04-03T14:49:00.342Z,14.70
2019-04-03T14:51:31.600Z,14.53
2019-04-03T14:54:01.235Z,16.57
2019-04-03T14:56:33.246Z,15.45
2019-04-03T14:59:02.968Z,14.17
2019-04-03T15:01:33.099Z,15.08
2019-04-03T15:04:02.937Z,15.07
2019-04-03T15:06:32.329Z,15.73
2019-04-03T15:09:02.823Z,14.97
2019-04-03T15:11:34.386Z,14.45
2019-04-03T15:14:05.216Z,17.07
2019-04-03T15:16:34.563Z,15.13
2019-04-03T15:19:05.041Z,15.60
2019-04-03T15:21:35.924Z,16.30
2019-04-03T15:24:05.775Z,15.17
2019-04-03T15:26:35.317Z,15.07
2019-04-03T15:29:06.516Z,16.10
2019-04-03T15:31:35.973Z,17.75
2019-04-03T15:34:05.796Z,16.17
2019-04-03T15:36:36.395Z,15.33
2019-04-03T15:39:16.403Z,16.10
2019-04-03T15:41:47.869Z,15.77
2019-04-03T15:44:19.981Z,16.13
2019-04-03T15:46:48.601Z,16.20
2019-04-03T15:49:18.554Z,15.68
2019-04-03T15:51:51.359Z,15.45
2019-04-03T15:54:20.780Z,15.38
2019-04-03T15:56:51.248Z,15.35
2019-04-03T15:59:24.131Z,13.78
2019-04-03T16:01:54.004Z,14.05
2019-04-03T16:04:24.918Z,13.90
2019-04-03T16:06:55.731Z,12.58
2019-04-03T16:09:25.707Z,12.53
2019-04-03T16:12:00.275Z,12.43
2019-04-03T16:14:30.896Z,12.27
2019-04-03T16:17:02.997Z,12.27
2019-04-03T16:19:34.394Z,12.18
2019-04-03T16:22:03.877Z,12.30
2019-04-03T16:24:33.446Z,12.15
2019-04-03T16:27:03.879Z,14.17
2019-04-03T16:29:33.595Z,15.40
2019-04-03T16:32:03.565Z,11.57
2019-04-03T16:34:33.516Z,11.70
2019-04-03T16:37:04.141Z,11.27
2019-04-03T16:39:34.774Z,10.88
2019-04-03T16:42:04.825Z,13.27
2019-04-03T16:44:34.197Z,12.33
2019-04-03T16:47:05.407Z,12.15
2019-04-03T16:49:36.197Z,11.37
2019-04-03T16:52:07.198Z,10.57
2019-04-03T16:54:37.140Z,11.67
2019-04-03T16:57:07.004Z,10.93
2019-04-03T16:59:40.314Z,12.07
2019-04-03T17:02:12.569Z,12.17
2019-04-03T17:04:43.572Z,11.10
2019-04-03T17:07:14.830Z,11.63
2019-04-03T17:09:44.755Z,14.60
2019-04-03T17:12:17.325Z,11.57
2019-04-03T17:14:47.098Z,11.73
2019-04-03T17:17:19.716Z,12.13
2019-04-03T17:19:51.371Z,12.20
2019-04-03T17:22:22.252Z,12.20
2019-04-03T17:24:56.237Z,11.63
2019-04-03T17:27:29.670Z,12.70
2019-04-03T17:29:58.643Z,12.27
2019-04-03T17:32:30.841Z,11.80
2019-04-03T17:35:01.387Z,11.65
2019-04-03T17:37:31.155Z,12.50
2019-04-03T17:40:00.836Z,11.67
2019-04-03T17:42:30.772Z,11.90
2019-04-03T17:45:00.371Z,11.90
2019-04-03T17:47:29.869Z,13.60
2019-04-03T17:50:00.671Z,12.60
2019-04-03T17:52:30.350Z,13.18
2019-04-03T17:55:01.039Z,13.90
2019-04-03T17:57:32.639Z,13.40
2019-04-03T18:00:03.450Z,13.63
2019-04-03T18:02:33.029Z,12.97
2019-04-03T18:05:06.362Z,11.93
2019-04-03T18:07:37.174Z,12.93
2019-04-03T18:10:09.179Z,12.53
2019-04-03T18:12:40.114Z,11.70
2019-04-03T18:15:10.171Z,11.87
2019-04-03T18:17:39.745Z,12.20
2019-04-03T18:20:13.268Z,12.43
2019-04-03T18:22:44.910Z,14.77
2019-04-03T18:25:15.654Z,12.87
2019-04-03T18:27:45.556Z,14.00
2019-04-03T18:30:16.916Z,16.53
2019-04-03T18:32:48.368Z,14.27
2019-04-03T18:35:19.758Z,14.97
2019-04-03T18:37:51.066Z,14.40
2019-04-03T18:40:20.639Z,17.73
2019-04-03T18:42:52.177Z,15.13
2019-04-03T18:45:25.537Z,15.27
2019-04-03T18:47:54.866Z,14.65
2019-04-03T18:50:24.467Z,14.68
2019-04-03T18:52:53.974Z,16.70
2019-04-03T18:55:23.359Z,16.05
2019-04-03T18:57:53.067Z,15.17
2019-04-03T19:00:22.625Z,14.60
2019-04-03T19:02:51.994Z,14.33
2019-04-03T19:05:21.503Z,14.70
2019-04-03T19:07:50.923Z,13.90
2019-04-03T19:10:23.028Z,15.43
2019-04-03T19:12:51.515Z,15.13
2019-04-03T19:15:21.240Z,15.43
2019-04-03T19:17:59.876Z,14.70
2019-04-03T19:20:21.889Z,15.93
2019-04-03T19:23:01.893Z,17.62
2019-04-03T19:25:22.444Z,17.33
2019-04-03T19:27:52.339Z,18.00
2019-04-03T19:30:21.961Z,16.37
2019-04-03T19:32:51.362Z,17.20
2019-04-03T19:35:21.176Z,15.87
2019-04-03T19:37:50.549Z,16.73
2019-04-03T19:40:19.983Z,16.43
2019-04-03T19:42:49.653Z,17.13
2019-04-03T19:45:21.328Z,16.97
2019-04-03T19:47:50.229Z,18.63
2019-04-03T19:50:19.664Z,20.37
2019-04-03T19:52:49.111Z,20.30
2019-04-03T19:55:19.479Z,18.50
2019-04-03T19:57:49.991Z,17.97
2019-04-03T20:00:20.716Z,17.37
2019-04-03T20:02:50.123Z,16.97
2019-04-03T20:05:19.690Z,17.27
2019-04-03T20:07:49.156Z,17.30
2019-04-03T20:10:18.575Z,19.87
2019-04-03T20:12:48.107Z,20.13
2019-04-03T20:15:17.528Z,18.32
2019-04-03T20:17:47.217Z,20.40
2019-04-03T20:20:16.986Z,20.67
2019-04-03T20:22:46.647Z,19.82
2019-04-03T20:25:16.669Z,23.38
2019-04-03T20:27:47.380Z,24.33
2019-04-03T20:30:17.968Z,25.27
2019-04-03T20:32:47.400Z,24.40
2019-04-03T20:35:18.718Z,27.50
2019-04-03T20:37:49.296Z,26.37
2019-04-03T20:40:18.706Z,28.20
2019-04-03T20:42:48.437Z,26.70
2019-04-03T20:45:19.753Z,26.03
2019-04-03T20:47:49.266Z,26.93
2019-04-03T20:50:18.785Z,27.80
2019-04-03T20:52:48.227Z,27.40
2019-04-03T20:55:17.662Z,27.97
2019-04-03T20:57:55.316Z,27.80
2019-04-03T21:00:19.786Z,28.77
2019-04-03T21:02:49.257Z,27.03
2019-04-03T21:05:18.962Z,29.73
2019-04-03T21:07:48.408Z,29.10
2019-04-03T21:10:17.848Z,30.80
2019-04-03T21:12:48.273Z,27.63
2019-04-03T21:15:17.777Z,27.40
2019-04-03T21:17:49.728Z,28.00
2019-04-03T21:20:18.818Z,28.23
2019-04-03T21:22:49.777Z,28.53
2019-04-03T21:25:20.440Z,129.47
2019-04-03T21:27:49.907Z,35.73
2019-04-03T21:30:19.304Z,42.20
2019-04-03T21:32:48.741Z,31.63
2019-04-03T21:35:18.320Z,28.40
2019-04-03T21:37:47.708Z,28.63
2019-04-03T21:40:17.419Z,27.33
2019-04-03T21:42:47.372Z,28.43
2019-04-03T21:45:17.001Z,28.00
2019-04-03T21:47:47.031Z,26.68
2019-04-03T21:50:19.188Z,30.10
2019-04-03T21:52:48.364Z,29.27
2019-04-03T21:55:18.731Z,28.03
2019-04-03T21:57:48.524Z,26.70
2019-04-03T22:00:36.660Z,28.57
2019-04-03T22:03:08.116Z,30.63
2019-04-03T22:05:39.301Z,32.87
2019-04-03T22:08:12.346Z,31.33
2019-04-03T22:10:41.930Z,30.10
2019-04-03T22:13:14.852Z,31.83
2019-04-03T22:15:45.566Z,29.57
2019-04-03T22:18:15.677Z,28.60
2019-04-03T22:20:45.101Z,28.97
2019-04-03T22:23:15.537Z,32.30
2019-04-03T22:25:45.263Z,31.23
2019-04-03T22:28:14.780Z,32.47
2019-04-03T22:30:44.254Z,29.87
2019-04-03T22:33:13.793Z,31.43
2019-04-03T22:35:44.863Z,33.93
2019-04-03T22:38:14.325Z,31.93
2019-04-03T22:40:45.718Z,30.43
2019-04-03T22:43:15.482Z,33.57
2019-04-03T22:45:50.470Z,30.30
2019-04-03T22:48:18.686Z,31.13
2019-04-03T22:50:48.097Z,30.87
2019-04-03T22:53:17.496Z,33.77
2019-04-03T22:55:47.331Z,35.73
2019-04-03T22:58:17.051Z,34.33
2019-04-03T23:00:47.097Z,37.90
2019-04-03T23:03:17.230Z,39.17
2019-04-03T23:05:48.044Z,38.58
2019-04-03T23:08:18.062Z,39.13
2019-04-03T23:10:47.672Z,37.60
2019-04-03T23:13:17.528Z,39.93
2019-04-03T23:15:47.135Z,39.00
2019-04-03T23:18:17.520Z,43.45
2019-04-03T23:20:47.199Z,40.00
2019-04-03T23:23:17.243Z,39.40
2019-04-03T23:25:47.486Z,45.55
2019-04-03T23:28:17.175Z,43.13
2019-04-03T23:30:47.368Z,43.97
2019-04-03T23:33:17.647Z,40.20
2019-04-03T23:35:47.206Z,41.40
2019-04-03T23:38:17.318Z,42.55
2019-04-03T23:40:47.432Z,39.48
2019-04-03T23:43:17.174Z,42.93
2019-04-03T23:45:47.171Z,41.37
2019-04-03T23:48:18.268Z,41.35
2019-04-03T23:50:48.266Z,38.07
2019-04-03T23:53:17.723Z,42.37
2019-04-03T23:55:47.325Z,37.80
2019-04-03T23:58:17.193Z,36.40
